sensor_id;sensor_type;location;lat;lon;timestamp;pressure;altitude;pressure_sealevel;temperature;humidity
41234;BME280;26968;42.686;23.352;2023-07-29T00:00:42;95122.31;;;21.72;47.12
41234;BME280;26968;42.686;23.352;2023-07-29T00:03:08;95063.03;;;21.32;46.94
41234;BME280;26968;42.686;23.352;2023-07-29T00:05:34;95043.47;;;21.35;46.81
41234;BME280;26968;42.686;23.352;2023-07-29T00:08:00;95126.03;;;21.95;46.75
41234;BME280;26968;42.686;23.352;2023-07-29T00:10:26;95127.38;;;21.74;47.03
41234;BME280;26968;42.686;23.352;2023-07-29T00:12:52;95040.06;;;21.10;47.18
41234;BME280;26968;42.686;23.352;2023-07-29T00:15:18;95086.44;;;21.44;47.49
41234;BME280;26968;42.686;23.352;2023-07-29T00:17:43;95111.09;;;21.42;47.39
41234;BME280;26968;42.686;23.352;2023-07-29T00:20:09;95119.38;;;21.49;47.61
41234;BME280;26968;42.686;23.352;2023-07-29T00:22:34;95103.16;;;21.34;47.84
41234;BME280;26968;42.686;23.352;2023-07-29T00:24:59;95123.34;;;21.68;47.37
41234;BME280;26968;42.686;23.352;2023-07-29T00:27:25;95133.34;;;21.67;47.24
41234;BME280;26968;42.686;23.352;2023-07-29T00:29:51;95123.09;;;21.73;47.56
41234;BME280;26968;42.686;23.352;2023-07-29T00:32:17;95122.41;;;21.76;47.32
41234;BME280;26968;42.686;23.352;2023-07-29T00:34:43;95127.41;;;21.62;47.78
41234;BME280;26968;42.686;23.352;2023-07-29T00:37:09;95076.66;;;21.24;47.90
41234;BME280;26968;42.686;23.352;2023-07-29T00:39:36;95050.00;;;20.94;48.06
41234;BME280;26968;42.686;23.352;2023-07-29T00:42:02;95114.59;;;21.43;48.11
41234;BME280;26968;42.686;23.352;2023-07-29T00:44:27;95119.78;;;21.36;48.44
41234;BME280;26968;42.686;23.352;2023-07-29T00:46:54;95096.56;;;21.19;48.66
41234;BME280;26968;42.686;23.352;2023-07-29T00:49:20;95103.31;;;21.13;49.25
41234;BME280;26968;42.686;23.352;2023-07-29T00:51:47;95081.88;;;20.92;49.47
41234;BME280;26968;42.686;23.352;2023-07-29T00:54:13;95110.03;;;21.07;49.87
41234;BME280;26968;42.686;23.352;2023-07-29T00:56:39;95106.47;;;20.91;50.49
41234;BME280;26968;42.686;23.352;2023-07-29T00:59:05;95106.94;;;21.05;50.23
41234;BME280;26968;42.686;23.352;2023-07-29T01:01:31;95093.78;;;21.03;49.89
41234;BME280;26968;42.686;23.352;2023-07-29T01:03:57;95093.66;;;21.12;49.79
41234;BME280;26968;42.686;23.352;2023-07-29T01:09:41;95084.38;;;20.97;50.09
41234;BME280;26968;42.686;23.352;2023-07-29T01:17:55;95093.97;;;21.10;49.94
41234;BME280;26968;42.686;23.352;2023-07-29T01:20:23;95075.56;;;21.00;49.53
41234;BME280;26968;42.686;23.352;2023-07-29T01:22:49;95081.97;;;21.08;50.29
41234;BME280;26968;42.686;23.352;2023-07-29T01:25:15;95105.78;;;21.18;50.00
41234;BME280;26968;42.686;23.352;2023-07-29T01:27:42;95116.44;;;21.27;49.52
41234;BME280;26968;42.686;23.352;2023-07-29T01:30:08;95083.28;;;21.14;49.55
41234;BME280;26968;42.686;23.352;2023-07-29T01:35:29;95106.63;;;21.34;49.37
41234;BME280;26968;42.686;23.352;2023-07-29T01:38:09;95100.97;;;20.99;50.26
41234;BME280;26968;42.686;23.352;2023-07-29T01:40:39;95093.16;;;20.82;50.59
41234;BME280;26968;42.686;23.352;2023-07-29T01:43:05;95088.53;;;20.95;50.46
41234;BME280;26968;42.686;23.352;2023-07-29T01:45:33;95054.44;;;20.62;50.82
41234;BME280;26968;42.686;23.352;2023-07-29T01:48:06;95075.09;;;20.70;50.94
41234;BME280;26968;42.686;23.352;2023-07-29T01:50:32;95104.25;;;20.93;50.83
41234;BME280;26968;42.686;23.352;2023-07-29T01:52:58;95112.81;;;20.70;51.33
41234;BME280;26968;42.686;23.352;2023-07-29T01:55:24;95092.06;;;20.47;51.67
41234;BME280;26968;42.686;23.352;2023-07-29T01:57:49;95103.19;;;20.57;52.08
41234;BME280;26968;42.686;23.352;2023-07-29T02:00:16;95103.28;;;20.49;52.35
41234;BME280;26968;42.686;23.352;2023-07-29T02:02:42;95119.09;;;20.62;52.37
41234;BME280;26968;42.686;23.352;2023-07-29T02:05:07;95117.66;;;20.65;52.04
41234;BME280;26968;42.686;23.352;2023-07-29T02:07:33;95098.88;;;20.68;51.60
41234;BME280;26968;42.686;23.352;2023-07-29T02:09:58;95083.88;;;20.55;51.36
41234;BME280;26968;42.686;23.352;2023-07-29T02:12:24;95046.38;;;20.38;51.19
41234;BME280;26968;42.686;23.352;2023-07-29T02:14:49;95051.00;;;20.37;51.50
41234;BME280;26968;42.686;23.352;2023-07-29T02:17:15;95112.38;;;20.80;51.22
41234;BME280;26968;42.686;23.352;2023-07-29T02:19:40;95075.69;;;20.52;50.91
41234;BME280;26968;42.686;23.352;2023-07-29T02:22:06;95034.03;;;20.25;50.91
41234;BME280;26968;42.686;23.352;2023-07-29T02:24:31;95106.19;;;20.68;51.32
41234;BME280;26968;42.686;23.352;2023-07-29T02:26:56;95096.44;;;20.63;51.21
41234;BME280;26968;42.686;23.352;2023-07-29T02:29:22;95056.38;;;20.25;51.45
41234;BME280;26968;42.686;23.352;2023-07-29T02:31:47;95115.53;;;20.34;52.76
41234;BME280;26968;42.686;23.352;2023-07-29T02:34:13;95091.50;;;20.29;52.44
41234;BME280;26968;42.686;23.352;2023-07-29T02:36:39;95117.22;;;20.51;52.18
41234;BME280;26968;42.686;23.352;2023-07-29T02:39:04;95123.03;;;20.53;51.86
41234;BME280;26968;42.686;23.352;2023-07-29T02:41:30;95114.16;;;20.52;51.77
41234;BME280;26968;42.686;23.352;2023-07-29T02:43:55;95115.44;;;20.42;52.47
41234;BME280;26968;42.686;23.352;2023-07-29T02:46:21;95109.91;;;20.39;52.00
41234;BME280;26968;42.686;23.352;2023-07-29T02:48:46;95090.13;;;20.23;52.51
41234;BME280;26968;42.686;23.352;2023-07-29T02:51:12;95120.59;;;20.35;52.69
41234;BME280;26968;42.686;23.352;2023-07-29T02:53:37;95127.19;;;20.38;52.73
41234;BME280;26968;42.686;23.352;2023-07-29T02:56:03;95099.22;;;20.18;52.19
41234;BME280;26968;42.686;23.352;2023-07-29T02:58:29;95089.56;;;20.05;51.98
41234;BME280;26968;42.686;23.352;2023-07-29T03:01:04;95112.78;;;19.97;52.41
41234;BME280;26968;42.686;23.352;2023-07-29T03:03:30;95104.34;;;19.87;52.75
41234;BME280;26968;42.686;23.352;2023-07-29T03:06:04;95135.66;;;20.03;52.68
41234;BME280;26968;42.686;23.352;2023-07-29T03:08:30;95123.72;;;19.80;53.11
41234;BME280;26968;42.686;23.352;2023-07-29T03:10:56;95105.75;;;19.72;53.08
41234;BME280;26968;42.686;23.352;2023-07-29T03:13:21;95122.22;;;19.71;53.32
41234;BME280;26968;42.686;23.352;2023-07-29T03:15:47;95147.63;;;19.82;53.29
41234;BME280;26968;42.686;23.352;2023-07-29T03:18:12;95140.59;;;19.69;53.45
41234;BME280;26968;42.686;23.352;2023-07-29T03:20:38;95128.16;;;19.64;53.36
41234;BME280;26968;42.686;23.352;2023-07-29T03:23:03;95134.56;;;19.72;53.20
41234;BME280;26968;42.686;23.352;2023-07-29T03:25:28;95128.06;;;19.60;53.05
41234;BME280;26968;42.686;23.352;2023-07-29T03:27:55;95143.13;;;19.86;52.87
41234;BME280;26968;42.686;23.352;2023-07-29T03:30:21;95137.19;;;19.92;52.47
41234;BME280;26968;42.686;23.352;2023-07-29T03:32:47;95092.25;;;19.48;52.67
41234;BME280;26968;42.686;23.352;2023-07-29T03:35:13;95150.06;;;19.75;52.54
41234;BME280;26968;42.686;23.352;2023-07-29T03:37:39;95149.63;;;19.85;52.39
41234;BME280;26968;42.686;23.352;2023-07-29T03:40:05;95094.25;;;19.30;52.43
41234;BME280;26968;42.686;23.352;2023-07-29T03:42:31;95155.47;;;19.87;52.22
41234;BME280;26968;42.686;23.352;2023-07-29T03:44:56;95104.25;;;19.50;51.67
41234;BME280;26968;42.686;23.352;2023-07-29T03:47:22;95135.69;;;19.71;51.74
41234;BME280;26968;42.686;23.352;2023-07-29T03:49:47;95109.47;;;19.68;51.13
41234;BME280;26968;42.686;23.352;2023-07-29T03:52:13;95136.13;;;19.60;52.24
41234;BME280;26968;42.686;23.352;2023-07-29T03:54:38;95146.38;;;19.91;51.71
41234;BME280;26968;42.686;23.352;2023-07-29T03:57:04;95131.16;;;19.83;51.75
41234;BME280;26968;42.686;23.352;2023-07-29T03:59:29;95139.88;;;19.92;51.41
41234;BME280;26968;42.686;23.352;2023-07-29T04:01:55;95134.50;;;19.92;51.61
41234;BME280;26968;42.686;23.352;2023-07-29T04:04:20;95119.38;;;19.88;51.73
41234;BME280;26968;42.686;23.352;2023-07-29T04:06:45;95146.31;;;20.00;51.94
41234;BME280;26968;42.686;23.352;2023-07-29T04:09:11;95119.34;;;19.76;52.21
41234;BME280;26968;42.686;23.352;2023-07-29T04:11:37;95113.50;;;19.74;52.07
41234;BME280;26968;42.686;23.352;2023-07-29T04:14:02;95155.44;;;19.75;52.20
41234;BME280;26968;42.686;23.352;2023-07-29T04:16:28;95146.34;;;19.67;52.13
41234;BME280;26968;42.686;23.352;2023-07-29T04:18:54;95124.75;;;19.55;52.01
41234;BME280;26968;42.686;23.352;2023-07-29T04:21:19;95114.06;;;19.67;51.81
41234;BME280;26968;42.686;23.352;2023-07-29T04:23:45;95133.06;;;19.83;51.54
41234;BME280;26968;42.686;23.352;2023-07-29T04:26:10;95140.66;;;19.81;52.34
41234;BME280;26968;42.686;23.352;2023-07-29T04:28:36;95157.41;;;19.98;51.96
41234;BME280;26968;42.686;23.352;2023-07-29T04:31:01;95160.00;;;20.07;51.90
41234;BME280;26968;42.686;23.352;2023-07-29T04:33:28;95118.72;;;19.91;51.93
41234;BME280;26968;42.686;23.352;2023-07-29T04:35:54;95127.25;;;20.05;51.89
41234;BME280;26968;42.686;23.352;2023-07-29T04:38:19;95147.13;;;20.25;52.09
41234;BME280;26968;42.686;23.352;2023-07-29T04:40:44;95117.94;;;20.02;51.81
41234;BME280;26968;42.686;23.352;2023-07-29T04:43:10;95159.25;;;20.31;51.70
41234;BME280;26968;42.686;23.352;2023-07-29T04:45:35;95162.91;;;20.35;51.22
41234;BME280;26968;42.686;23.352;2023-07-29T04:48:01;95093.38;;;20.04;50.65
41234;BME280;26968;42.686;23.352;2023-07-29T04:50:26;95145.84;;;20.43;50.78
41234;BME280;26968;42.686;23.352;2023-07-29T04:52:52;95153.13;;;20.42;50.77
41234;BME280;26968;42.686;23.352;2023-07-29T04:55:18;95167.06;;;20.57;50.74
41234;BME280;26968;42.686;23.352;2023-07-29T04:57:44;95147.75;;;20.42;50.47
41234;BME280;26968;42.686;23.352;2023-07-29T05:00:09;95165.69;;;20.63;50.48
41234;BME280;26968;42.686;23.352;2023-07-29T05:02:35;95173.34;;;20.73;50.25
41234;BME280;26968;42.686;23.352;2023-07-29T05:05:01;95152.00;;;20.56;49.79
41234;BME280;26968;42.686;23.352;2023-07-29T05:07:26;95181.75;;;20.71;49.69
41234;BME280;26968;42.686;23.352;2023-07-29T05:09:52;95165.91;;;20.70;49.37
41234;BME280;26968;42.686;23.352;2023-07-29T05:12:17;95144.72;;;20.56;49.36
41234;BME280;26968;42.686;23.352;2023-07-29T05:14:43;95155.47;;;20.68;49.27
41234;BME280;26968;42.686;23.352;2023-07-29T05:17:08;95185.13;;;20.93;49.48
41234;BME280;26968;42.686;23.352;2023-07-29T05:19:33;95178.25;;;20.95;49.58
41234;BME280;26968;42.686;23.352;2023-07-29T05:21:59;95161.97;;;20.92;49.09
41234;BME280;26968;42.686;23.352;2023-07-29T05:24:24;95183.75;;;21.11;49.01
41234;BME280;26968;42.686;23.352;2023-07-29T05:26:50;95184.78;;;20.94;49.17
41234;BME280;26968;42.686;23.352;2023-07-29T05:29:15;95189.59;;;21.13;48.85
41234;BME280;26968;42.686;23.352;2023-07-29T05:31:41;95185.22;;;21.21;48.25
41234;BME280;26968;42.686;23.352;2023-07-29T05:34:06;95159.69;;;21.06;48.48
41234;BME280;26968;42.686;23.352;2023-07-29T05:36:32;95184.00;;;21.18;48.21
41234;BME280;26968;42.686;23.352;2023-07-29T05:38:58;95182.38;;;21.29;48.04
41234;BME280;26968;42.686;23.352;2023-07-29T05:41:23;95195.16;;;21.44;48.21
41234;BME280;26968;42.686;23.352;2023-07-29T05:43:48;95160.81;;;21.29;48.00
41234;BME280;26968;42.686;23.352;2023-07-29T05:46:14;95171.03;;;21.36;47.94
41234;BME280;26968;42.686;23.352;2023-07-29T05:48:40;95174.72;;;21.43;47.63
41234;BME280;26968;42.686;23.352;2023-07-29T05:51:05;95173.50;;;21.29;47.88
41234;BME280;26968;42.686;23.352;2023-07-29T05:53:31;95161.06;;;21.24;48.05
41234;BME280;26968;42.686;23.352;2023-07-29T05:55:56;95193.91;;;21.54;47.87
41234;BME280;26968;42.686;23.352;2023-07-29T05:58:22;95140.78;;;21.30;48.39
41234;BME280;26968;42.686;23.352;2023-07-29T06:00:47;95190.94;;;21.59;48.46
41234;BME280;26968;42.686;23.352;2023-07-29T06:03:13;95189.78;;;21.72;48.13
41234;BME280;26968;42.686;23.352;2023-07-29T06:05:39;95183.34;;;21.77;48.02
41234;BME280;26968;42.686;23.352;2023-07-29T06:08:04;95144.78;;;21.48;47.62
41234;BME280;26968;42.686;23.352;2023-07-29T06:10:30;95158.00;;;21.66;47.64
41234;BME280;26968;42.686;23.352;2023-07-29T06:12:55;95134.72;;;21.61;47.31
41234;BME280;26968;42.686;23.352;2023-07-29T06:15:20;95176.34;;;21.88;47.21
41234;BME280;26968;42.686;23.352;2023-07-29T06:17:48;95174.84;;;21.90;47.28
41234;BME280;26968;42.686;23.352;2023-07-29T06:20:13;95165.72;;;21.95;46.88
41234;BME280;26968;42.686;23.352;2023-07-29T06:22:39;95157.13;;;22.05;46.65
41234;BME280;26968;42.686;23.352;2023-07-29T06:25:04;95159.41;;;22.03;47.38
41234;BME280;26968;42.686;23.352;2023-07-29T06:27:30;95161.00;;;22.04;47.78
41234;BME280;26968;42.686;23.352;2023-07-29T06:29:55;95170.25;;;22.19;47.66
41234;BME280;26968;42.686;23.352;2023-07-29T06:32:21;95075.78;;;21.47;48.00
41234;BME280;26968;42.686;23.352;2023-07-29T06:34:46;95137.50;;;21.92;48.00
41234;BME280;26968;42.686;23.352;2023-07-29T06:37:12;95157.53;;;22.19;48.01
41234;BME280;26968;42.686;23.352;2023-07-29T06:39:37;95111.94;;;22.02;47.99
41234;BME280;26968;42.686;23.352;2023-07-29T06:42:03;95102.59;;;22.00;47.94
41234;BME280;26968;42.686;23.352;2023-07-29T06:44:28;95156.47;;;22.40;47.65
41234;BME280;26968;42.686;23.352;2023-07-29T06:46:54;95157.09;;;22.49;47.55
41234;BME280;26968;42.686;23.352;2023-07-29T06:49:19;95120.47;;;22.36;47.65
41234;BME280;26968;42.686;23.352;2023-07-29T06:51:45;95148.09;;;22.60;47.53
41234;BME280;26968;42.686;23.352;2023-07-29T06:54:10;95127.97;;;22.58;47.72
41234;BME280;26968;42.686;23.352;2023-07-29T06:56:35;95121.53;;;22.47;47.55
41234;BME280;26968;42.686;23.352;2023-07-29T06:59:01;95155.88;;;22.78;46.84
41234;BME280;26968;42.686;23.352;2023-07-29T07:01:26;95127.34;;;22.64;46.78
41234;BME280;26968;42.686;23.352;2023-07-29T07:03:52;95158.91;;;22.92;46.82
41234;BME280;26968;42.686;23.352;2023-07-29T07:06:21;95123.69;;;22.73;46.65
41234;BME280;26968;42.686;23.352;2023-07-29T07:08:47;95150.63;;;22.85;46.98
41234;BME280;26968;42.686;23.352;2023-07-29T07:11:13;95162.56;;;22.84;46.96
41234;BME280;26968;42.686;23.352;2023-07-29T07:13:38;95151.91;;;22.91;46.80
41234;BME280;26968;42.686;23.352;2023-07-29T07:16:04;95148.09;;;22.92;46.99
41234;BME280;26968;42.686;23.352;2023-07-29T07:18:29;95154.28;;;22.92;46.77
41234;BME280;26968;42.686;23.352;2023-07-29T07:20:55;95141.81;;;22.88;46.21
41234;BME280;26968;42.686;23.352;2023-07-29T07:23:20;95139.13;;;22.88;46.36
41234;BME280;26968;42.686;23.352;2023-07-29T07:25:46;95151.06;;;22.87;46.79
41234;BME280;26968;42.686;23.352;2023-07-29T07:28:11;95112.44;;;22.70;46.48
41234;BME280;26968;42.686;23.352;2023-07-29T07:30:40;95151.22;;;22.94;46.48
41234;BME280;26968;42.686;23.352;2023-07-29T07:33:09;95149.22;;;22.91;46.40
41234;BME280;26968;42.686;23.352;2023-07-29T07:35:34;95125.94;;;22.86;46.45
41234;BME280;26968;42.686;23.352;2023-07-29T07:38:00;95071.78;;;22.67;45.97
41234;BME280;26968;42.686;23.352;2023-07-29T07:40:27;95140.22;;;23.22;45.96
41234;BME280;26968;42.686;23.352;2023-07-29T07:42:53;95131.63;;;23.16;45.46
41234;BME280;26968;42.686;23.352;2023-07-29T07:45:19;95146.38;;;23.38;44.96
41234;BME280;26968;42.686;23.352;2023-07-29T07:47:44;95098.72;;;23.14;44.91
41234;BME280;26968;42.686;23.352;2023-07-29T07:50:10;95148.88;;;23.46;45.02
41234;BME280;26968;42.686;23.352;2023-07-29T07:52:35;95125.94;;;23.40;44.94
41234;BME280;26968;42.686;23.352;2023-07-29T07:55:01;95122.50;;;23.43;44.49
41234;BME280;26968;42.686;23.352;2023-07-29T07:57:26;95120.53;;;23.40;44.25
41234;BME280;26968;42.686;23.352;2023-07-29T07:59:52;95134.72;;;23.53;43.38
41234;BME280;26968;42.686;23.352;2023-07-29T08:02:18;95131.84;;;23.46;43.00
41234;BME280;26968;42.686;23.352;2023-07-29T08:04:44;95152.69;;;23.61;42.92
41234;BME280;26968;42.686;23.352;2023-07-29T08:07:09;95136.34;;;23.58;42.74
41234;BME280;26968;42.686;23.352;2023-07-29T08:09:35;95152.47;;;23.70;43.42
41234;BME280;26968;42.686;23.352;2023-07-29T08:12:00;95138.84;;;23.66;43.24
41234;BME280;26968;42.686;23.352;2023-07-29T08:14:25;95148.53;;;23.87;42.94
41234;BME280;26968;42.686;23.352;2023-07-29T08:16:52;95141.59;;;23.89;43.27
41234;BME280;26968;42.686;23.352;2023-07-29T08:19:17;95092.81;;;23.47;42.04
41234;BME280;26968;42.686;23.352;2023-07-29T08:21:42;95115.13;;;23.60;41.42
41234;BME280;26968;42.686;23.352;2023-07-29T08:24:08;95143.25;;;23.74;41.33
41234;BME280;26968;42.686;23.352;2023-07-29T08:26:33;95131.78;;;23.81;41.52
41234;BME280;26968;42.686;23.352;2023-07-29T08:28:59;95124.09;;;23.83;41.37
41234;BME280;26968;42.686;23.352;2023-07-29T08:31:24;95134.34;;;23.93;41.79
41234;BME280;26968;42.686;23.352;2023-07-29T08:33:50;95123.16;;;23.95;42.02
41234;BME280;26968;42.686;23.352;2023-07-29T08:36:15;95110.00;;;23.97;42.12
41234;BME280;26968;42.686;23.352;2023-07-29T08:38:41;95120.13;;;24.00;41.57
41234;BME280;26968;42.686;23.352;2023-07-29T08:41:26;95140.22;;;24.18;40.96
41234;BME280;26968;42.686;23.352;2023-07-29T08:44:10;95110.91;;;24.04;40.86
41234;BME280;26968;42.686;23.352;2023-07-29T08:46:38;95112.69;;;24.16;41.09
41234;BME280;26968;42.686;23.352;2023-07-29T08:49:04;95107.84;;;24.25;40.90
41234;BME280;26968;42.686;23.352;2023-07-29T08:51:31;95129.56;;;24.51;40.32
41234;BME280;26968;42.686;23.352;2023-07-29T08:53:58;95078.16;;;24.32;40.52
41234;BME280;26968;42.686;23.352;2023-07-29T08:56:24;95076.34;;;24.40;40.28
41234;BME280;26968;42.686;23.352;2023-07-29T08:58:50;95105.97;;;24.78;39.38
41234;BME280;26968;42.686;23.352;2023-07-29T09:01:16;95099.44;;;24.83;39.41
41234;BME280;26968;42.686;23.352;2023-07-29T09:03:42;95064.34;;;24.67;38.61
41234;BME280;26968;42.686;23.352;2023-07-29T09:06:07;95097.72;;;24.97;38.78
41234;BME280;26968;42.686;23.352;2023-07-29T09:08:33;95102.16;;;25.09;38.60
41234;BME280;26968;42.686;23.352;2023-07-29T09:10:59;95102.97;;;25.13;39.17
41234;BME280;26968;42.686;23.352;2023-07-29T09:13:25;95084.31;;;25.08;37.51
41234;BME280;26968;42.686;23.352;2023-07-29T09:15:54;95102.78;;;25.29;37.00
41234;BME280;26968;42.686;23.352;2023-07-29T09:18:21;95073.19;;;25.17;36.29
41234;BME280;26968;42.686;23.352;2023-07-29T09:20:48;95087.31;;;25.33;35.51
41234;BME280;26968;42.686;23.352;2023-07-29T09:23:14;95090.19;;;25.44;34.95
41234;BME280;26968;42.686;23.352;2023-07-29T09:25:40;95086.69;;;25.43;34.62
41234;BME280;26968;42.686;23.352;2023-07-29T09:28:13;95083.19;;;25.43;34.61
41234;BME280;26968;42.686;23.352;2023-07-29T09:30:40;95088.44;;;25.58;34.78
41234;BME280;26968;42.686;23.352;2023-07-29T09:33:06;95076.84;;;25.61;34.05
41234;BME280;26968;42.686;23.352;2023-07-29T09:35:34;95046.75;;;25.44;33.70
41234;BME280;26968;42.686;23.352;2023-07-29T09:38:01;95083.13;;;25.69;33.80
41234;BME280;26968;42.686;23.352;2023-07-29T09:40:26;95069.06;;;25.60;33.42
41234;BME280;26968;42.686;23.352;2023-07-29T09:42:55;95044.81;;;25.44;33.84
41234;BME280;26968;42.686;23.352;2023-07-29T09:45:25;95080.13;;;25.78;33.40
41234;BME280;26968;42.686;23.352;2023-07-29T09:47:52;95041.91;;;25.60;33.50
41234;BME280;26968;42.686;23.352;2023-07-29T09:50:18;95032.53;;;25.57;32.57
41234;BME280;26968;42.686;23.352;2023-07-29T09:52:44;95071.38;;;25.98;32.27
41234;BME280;26968;42.686;23.352;2023-07-29T09:55:13;95069.06;;;26.41;32.42
41234;BME280;26968;42.686;23.352;2023-07-29T09:57:40;95052.31;;;26.94;30.84
41234;BME280;26968;42.686;23.352;2023-07-29T10:00:06;95064.00;;;27.95;29.72
41234;BME280;26968;42.686;23.352;2023-07-29T10:02:38;95067.56;;;28.81;28.24
41234;BME280;26968;42.686;23.352;2023-07-29T10:05:06;95021.72;;;29.48;27.23
41234;BME280;26968;42.686;23.352;2023-07-29T10:07:33;95039.28;;;30.17;26.35
41234;BME280;26968;42.686;23.352;2023-07-29T10:09:59;95007.56;;;30.67;24.70
41234;BME280;26968;42.686;23.352;2023-07-29T10:12:27;95042.41;;;31.72;24.00
41234;BME280;26968;42.686;23.352;2023-07-29T10:14:54;95060.44;;;32.27;23.71
41234;BME280;26968;42.686;23.352;2023-07-29T10:17:20;95036.31;;;32.42;23.31
41234;BME280;26968;42.686;23.352;2023-07-29T10:19:47;95041.59;;;32.99;23.32
41234;BME280;26968;42.686;23.352;2023-07-29T10:22:13;95040.66;;;33.49;22.91
41234;BME280;26968;42.686;23.352;2023-07-29T10:24:42;95042.69;;;34.00;22.23
41234;BME280;26968;42.686;23.352;2023-07-29T10:27:10;95005.84;;;34.30;21.70
41234;BME280;26968;42.686;23.352;2023-07-29T10:29:39;94988.00;;;34.51;21.12
41234;BME280;26968;42.686;23.352;2023-07-29T10:32:08;95012.31;;;35.01;21.15
41234;BME280;26968;42.686;23.352;2023-07-29T10:34:35;95019.38;;;35.44;21.38
41234;BME280;26968;42.686;23.352;2023-07-29T10:37:01;95013.38;;;35.62;21.12
41234;BME280;26968;42.686;23.352;2023-07-29T10:39:27;95022.69;;;35.93;20.72
41234;BME280;26968;42.686;23.352;2023-07-29T10:42:01;95008.56;;;36.29;21.07
41234;BME280;26968;42.686;23.352;2023-07-29T10:47:28;95000.03;;;36.11;19.47
41234;BME280;26968;42.686;23.352;2023-07-29T10:49:58;95016.94;;;36.13;20.14
41234;BME280;26968;42.686;23.352;2023-07-29T10:54:57;95004.16;;;36.31;19.64
41234;BME280;26968;42.686;23.352;2023-07-29T10:57:34;94984.25;;;36.11;19.58
41234;BME280;26968;42.686;23.352;2023-07-29T11:00:01;95001.16;;;36.26;19.56
41234;BME280;26968;42.686;23.352;2023-07-29T11:02:35;94992.19;;;36.09;20.08
41234;BME280;26968;42.686;23.352;2023-07-29T11:05:17;94987.00;;;36.24;19.73
41234;BME280;26968;42.686;23.352;2023-07-29T11:07:47;94975.28;;;36.32;19.49
41234;BME280;26968;42.686;23.352;2023-07-29T11:10:14;94960.78;;;36.54;19.48
41234;BME280;26968;42.686;23.352;2023-07-29T11:12:48;94993.03;;;36.57;19.84
41234;BME280;26968;42.686;23.352;2023-07-29T11:15:23;94974.09;;;36.33;18.99
41234;BME280;26968;42.686;23.352;2023-07-29T11:20:16;94931.63;;;36.53;19.06
41234;BME280;26968;42.686;23.352;2023-07-29T11:22:42;94982.00;;;36.91;18.95
41234;BME280;26968;42.686;23.352;2023-07-29T11:25:10;94964.59;;;37.03;18.85
41234;BME280;26968;42.686;23.352;2023-07-29T11:27:36;94953.22;;;37.23;18.14
41234;BME280;26968;42.686;23.352;2023-07-29T11:30:04;94981.31;;;37.43;17.33
41234;BME280;26968;42.686;23.352;2023-07-29T11:32:30;94986.66;;;37.60;16.85
41234;BME280;26968;42.686;23.352;2023-07-29T11:34:56;94950.25;;;37.39;17.31
41234;BME280;26968;42.686;23.352;2023-07-29T11:37:22;94972.56;;;37.67;17.26
41234;BME280;26968;42.686;23.352;2023-07-29T11:39:47;94926.88;;;37.62;17.18
41234;BME280;26968;42.686;23.352;2023-07-29T11:42:14;94972.78;;;37.81;18.30
41234;BME280;26968;42.686;23.352;2023-07-29T11:44:40;94940.00;;;37.18;17.14
41234;BME280;26968;42.686;23.352;2023-07-29T11:47:09;94934.50;;;36.84;17.35
41234;BME280;26968;42.686;23.352;2023-07-29T11:49:35;94972.97;;;37.13;16.98
41234;BME280;26968;42.686;23.352;2023-07-29T11:52:07;94953.59;;;37.34;17.18
41234;BME280;26968;42.686;23.352;2023-07-29T11:54:35;94951.13;;;36.71;18.15
41234;BME280;26968;42.686;23.352;2023-07-29T11:57:01;94940.41;;;36.95;17.07
41234;BME280;26968;42.686;23.352;2023-07-29T11:59:27;94962.16;;;37.05;17.29
41234;BME280;26968;42.686;23.352;2023-07-29T12:01:53;94948.31;;;37.49;17.88
41234;BME280;26968;42.686;23.352;2023-07-29T12:04:19;94927.56;;;37.44;17.25
41234;BME280;26968;42.686;23.352;2023-07-29T12:06:45;94941.81;;;37.65;17.07
41234;BME280;26968;42.686;23.352;2023-07-29T12:09:10;94908.00;;;37.70;17.52
41234;BME280;26968;42.686;23.352;2023-07-29T12:11:38;94922.16;;;37.72;17.07
41234;BME280;26968;42.686;23.352;2023-07-29T12:14:07;94937.31;;;37.98;16.86
41234;BME280;26968;42.686;23.352;2023-07-29T12:16:47;94916.75;;;37.37;17.48
41234;BME280;26968;42.686;23.352;2023-07-29T12:19:13;94938.34;;;37.52;17.16
41234;BME280;26968;42.686;23.352;2023-07-29T12:21:41;94930.03;;;37.21;18.11
41234;BME280;26968;42.686;23.352;2023-07-29T12:24:07;94929.63;;;36.88;17.93
41234;BME280;26968;42.686;23.352;2023-07-29T12:26:33;94929.69;;;36.62;18.41
41234;BME280;26968;42.686;23.352;2023-07-29T12:28:59;94914.28;;;36.52;18.52
41234;BME280;26968;42.686;23.352;2023-07-29T12:31:37;94917.91;;;36.62;18.12
41234;BME280;26968;42.686;23.352;2023-07-29T12:34:03;94919.00;;;36.86;18.30
41234;BME280;26968;42.686;23.352;2023-07-29T12:36:48;94919.94;;;36.83;18.40
41234;BME280;26968;42.686;23.352;2023-07-29T12:41:42;94917.97;;;36.93;17.88
41234;BME280;26968;42.686;23.352;2023-07-29T12:44:08;94912.66;;;36.77;17.49
41234;BME280;26968;42.686;23.352;2023-07-29T12:46:33;94917.03;;;37.30;17.36
41234;BME280;26968;42.686;23.352;2023-07-29T12:48:59;94916.44;;;37.66;17.27
41234;BME280;26968;42.686;23.352;2023-07-29T12:51:24;94913.47;;;37.08;16.84
41234;BME280;26968;42.686;23.352;2023-07-29T12:53:50;94925.00;;;36.85;16.64
41234;BME280;26968;42.686;23.352;2023-07-29T12:56:15;94914.00;;;36.94;16.08
41234;BME280;26968;42.686;23.352;2023-07-29T12:58:41;94903.00;;;37.03;16.64
41234;BME280;26968;42.686;23.352;2023-07-29T13:01:06;94890.84;;;37.00;16.68
41234;BME280;26968;42.686;23.352;2023-07-29T13:03:32;94904.50;;;37.17;16.74
41234;BME280;26968;42.686;23.352;2023-07-29T13:05:57;94907.78;;;36.46;17.25
41234;BME280;26968;42.686;23.352;2023-07-29T13:08:22;94913.88;;;36.41;17.52